createdAt,value
2023-04-09T00:00:36.000Z,12.1
2023-04-09T00:04:09.000Z,12
2023-04-09T00:07:41.000Z,16.3
2023-04-09T00:11:14.000Z,22.2
2023-04-09T00:14:46.000Z,22.2
2023-04-09T00:18:19.000Z,18.9
2023-04-09T00:21:52.000Z,20
2023-04-09T00:25:24.000Z,16.8
2023-04-09T00:28:16.000Z,18.1
2023-04-09T00:31:48.000Z,16.7
2023-04-09T00:35:21.000Z,16.7
2023-04-09T00:38:53.000Z,16.8
2023-04-09T00:42:26.000Z,14.1
2023-04-09T00:45:59.000Z,14.7
2023-04-09T00:49:32.000Z,16.1
2023-04-09T00:53:04.000Z,19.3
2023-04-09T00:56:37.000Z,16.7
2023-04-09T01:00:09.000Z,19.3
2023-04-09T01:03:42.000Z,17.7
2023-04-09T01:06:33.000Z,19.5
2023-04-09T01:10:06.000Z,24.8
2023-04-09T01:13:38.000Z,23.9
2023-04-09T01:17:11.000Z,21.8
2023-04-09T01:20:44.000Z,18.4
2023-04-09T01:24:16.000Z,15.3
2023-04-09T01:27:49.000Z,16.7
2023-04-09T01:31:22.000Z,15.7
2023-04-09T01:34:55.000Z,15.3
2023-04-09T01:38:27.000Z,15.9
2023-04-09T01:42:00.000Z,17.7
2023-04-09T01:44:51.000Z,16.6
2023-04-09T01:48:24.000Z,16.2
2023-04-09T01:51:56.000Z,13.6
2023-04-09T01:55:29.000Z,14.7
2023-04-09T01:59:01.000Z,15.4
2023-04-09T02:02:34.000Z,14.5
2023-04-09T02:06:07.000Z,15.9
2023-04-09T02:09:40.000Z,17.1
2023-04-09T02:13:12.000Z,17.3
2023-04-09T02:16:45.000Z,17.3
2023-04-09T02:20:17.000Z,18
2023-04-09T02:23:08.000Z,19.1
2023-04-09T02:26:41.000Z,16.2
2023-04-09T02:30:14.000Z,19
2023-04-09T02:33:46.000Z,20
2023-04-09T02:37:19.000Z,19.3
2023-04-09T02:40:52.000Z,19.7
2023-04-09T02:44:24.000Z,17.8
2023-04-09T02:47:57.000Z,16.6
2023-04-09T02:51:30.000Z,18.5
2023-04-09T02:55:03.000Z,17.9
2023-04-09T02:58:35.000Z,16.9
2023-04-09T03:01:26.000Z,19.5
2023-04-09T03:04:59.000Z,20.4
2023-04-09T03:08:32.000Z,19.1
2023-04-09T03:12:04.000Z,20.4
2023-04-09T03:15:37.000Z,19.8
2023-04-09T03:19:10.000Z,18.1
2023-04-09T03:22:42.000Z,17.2
2023-04-09T03:26:15.000Z,16.4
2023-04-09T03:29:47.000Z,16.4
2023-04-09T03:33:20.000Z,16.8
2023-04-09T03:36:53.000Z,16.2
2023-04-09T03:39:44.000Z,16.8
2023-04-09T03:43:17.000Z,16.3
2023-04-09T03:46:49.000Z,16.6
2023-04-09T03:50:22.000Z,17.1
2023-04-09T03:53:55.000Z,17.9
2023-04-09T03:57:27.000Z,15.2
2023-04-09T04:01:00.000Z,17.1
2023-04-09T04:04:33.000Z,16.7
2023-04-09T04:08:06.000Z,16.8
2023-04-09T04:11:38.000Z,14.5
2023-04-09T04:15:11.000Z,16.4
2023-04-09T04:18:02.000Z,14.8
2023-04-09T04:21:35.000Z,15.1
2023-04-09T04:25:07.000Z,15.7
2023-04-09T04:28:40.000Z,16.7
2023-04-09T04:32:13.000Z,16.1
2023-04-09T04:35:45.000Z,15.3
2023-04-09T04:39:18.000Z,15.7
2023-04-09T04:42:50.000Z,16.5
2023-04-09T04:46:23.000Z,15.8
2023-04-09T04:49:56.000Z,17.4
2023-04-09T04:53:29.000Z,17.4
2023-04-09T04:56:21.000Z,16.4
2023-04-09T04:59:53.000Z,16
2023-04-09T05:03:26.000Z,16.9
2023-04-09T05:06:59.000Z,18.2
2023-04-09T05:10:31.000Z,17.7
2023-04-09T05:14:04.000Z,19.5
2023-04-09T05:17:37.000Z,17.5
2023-04-09T05:21:10.000Z,17.1
2023-04-09T05:24:42.000Z,17.4
2023-04-09T05:28:15.000Z,17.2
2023-04-09T05:31:47.000Z,16
2023-04-09T05:34:39.000Z,16.8
2023-04-09T05:38:11.000Z,16.7
2023-04-09T05:41:44.000Z,17.7
2023-04-09T05:45:16.000Z,18.4
2023-04-09T05:48:49.000Z,16.5
2023-04-09T05:52:22.000Z,17.6
2023-04-09T05:55:54.000Z,18
2023-04-09T05:59:27.000Z,17.8
2023-04-09T06:03:00.000Z,17.3
2023-04-09T06:06:33.000Z,20.2
2023-04-09T06:10:05.000Z,17.5
2023-04-09T06:12:56.000Z,18.3
2023-04-09T06:16:29.000Z,19.9
2023-04-09T06:20:02.000Z,22.8
2023-04-09T06:23:34.000Z,23.6
2023-04-09T06:27:07.000Z,23.2
2023-04-09T06:30:40.000Z,20.8
2023-04-09T06:34:12.000Z,26.2
2023-04-09T06:37:45.000Z,18.9
2023-04-09T06:41:18.000Z,18.1
2023-04-09T06:44:50.000Z,26.1
2023-04-09T06:48:23.000Z,20.2
2023-04-09T06:51:15.000Z,23.3
2023-04-09T06:54:47.000Z,26.3
2023-04-09T06:58:20.000Z,21.6
2023-04-09T07:01:53.000Z,22.5
2023-04-09T07:05:26.000Z,27.5
2023-04-09T07:08:59.000Z,29.3
2023-04-09T07:12:31.000Z,28.2
2023-04-09T07:16:04.000Z,30.5
2023-04-09T07:19:37.000Z,33.8
2023-04-09T07:23:10.000Z,36.3
2023-04-09T07:26:42.000Z,37.1
2023-04-09T07:29:36.000Z,37.4
2023-04-09T07:33:09.000Z,35.5
2023-04-09T07:36:41.000Z,30.9
2023-04-09T07:40:14.000Z,30.6
2023-04-09T07:43:46.000Z,33.9
2023-04-09T07:47:19.000Z,31.5
2023-04-09T07:50:52.000Z,31.4
2023-04-09T07:54:25.000Z,32.9
2023-04-09T07:57:57.000Z,30.5
2023-04-09T08:01:30.000Z,31.5
2023-04-09T08:05:03.000Z,30.3
2023-04-09T08:07:54.000Z,31.9
2023-04-09T08:11:27.000Z,32.3
2023-04-09T08:15:00.000Z,35.2
2023-04-09T08:18:32.000Z,34.9
2023-04-09T08:22:05.000Z,31.8
2023-04-09T08:25:38.000Z,35.8
2023-04-09T08:29:10.000Z,35
2023-04-09T08:32:43.000Z,35.7
2023-04-09T08:36:16.000Z,31.1
2023-04-09T08:39:48.000Z,32.1
2023-04-09T08:43:21.000Z,33.3
2023-04-09T08:46:30.000Z,31.1
2023-04-09T08:50:03.000Z,33.2
2023-04-09T08:53:36.000Z,29
2023-04-09T08:57:08.000Z,27.4
2023-04-09T09:00:41.000Z,29.1
2023-04-09T09:04:14.000Z,27.4
2023-04-09T09:07:46.000Z,28.2
2023-04-09T09:11:19.000Z,28.8
2023-04-09T09:14:52.000Z,26.8
2023-04-09T09:18:25.000Z,27
2023-04-09T09:21:57.000Z,25.2
2023-04-09T09:24:48.000Z,25.1
2023-04-09T09:28:21.000Z,27.4
2023-04-09T09:31:54.000Z,26.3
2023-04-09T09:35:26.000Z,23.9
2023-04-09T09:38:59.000Z,24.4
2023-04-09T09:42:32.000Z,23.1
2023-04-09T09:46:04.000Z,24.4
2023-04-09T09:49:37.000Z,24.9
2023-04-09T09:53:09.000Z,23.5
2023-04-09T09:56:42.000Z,22.2
2023-04-09T10:00:14.000Z,21
2023-04-09T10:03:07.000Z,20.9
2023-04-09T10:06:40.000Z,23.2
2023-04-09T10:10:13.000Z,21.4
2023-04-09T10:13:46.000Z,20.8
2023-04-09T10:17:19.000Z,19.8
2023-04-09T10:20:52.000Z,20.2
2023-04-09T10:24:25.000Z,22.7
2023-04-09T10:27:57.000Z,18.8
2023-04-09T10:31:30.000Z,19.1
2023-04-09T10:35:03.000Z,19.4
2023-04-09T10:38:35.000Z,19.7
2023-04-09T10:41:27.000Z,22.6
2023-04-09T10:44:59.000Z,20.1
2023-04-09T10:48:32.000Z,20
2023-04-09T10:52:04.000Z,18.6
2023-04-09T10:55:37.000Z,20.8
2023-04-09T10:59:10.000Z,22
2023-04-09T11:02:43.000Z,23.4
2023-04-09T11:06:16.000Z,21.1
2023-04-09T11:09:48.000Z,19.6
2023-04-09T11:13:21.000Z,20.6
2023-04-09T11:16:53.000Z,20.6
2023-04-09T11:19:45.000Z,18.6
2023-04-09T11:23:17.000Z,18.7
2023-04-09T11:26:50.000Z,19.1
2023-04-09T11:30:23.000Z,19.3
2023-04-09T11:33:55.000Z,16.9
2023-04-09T11:37:28.000Z,19.2
2023-04-09T11:41:01.000Z,17.5
2023-04-09T11:44:33.000Z,17.1
2023-04-09T11:48:06.000Z,16.6
2023-04-09T11:51:39.000Z,15.9
2023-04-09T11:55:12.000Z,15.6
2023-04-09T11:58:03.000Z,16.3
2023-04-09T12:01:35.000Z,13.4
2023-04-09T12:05:08.000Z,14.9
2023-04-09T12:08:41.000Z,13.9
2023-04-09T12:12:14.000Z,13.9
2023-04-09T12:15:46.000Z,14
2023-04-09T12:19:19.000Z,13
2023-04-09T12:22:52.000Z,12.9
2023-04-09T12:26:24.000Z,14.4
2023-04-09T12:29:57.000Z,14.9
2023-04-09T12:33:30.000Z,12.3
2023-04-09T12:36:21.000Z,13.3
2023-04-09T12:39:54.000Z,12.5
2023-04-09T12:43:26.000Z,12.8
2023-04-09T12:46:59.000Z,12.5
2023-04-09T12:50:32.000Z,13.2
2023-04-09T12:54:04.000Z,11.5
2023-04-09T12:57:40.000Z,10.7
2023-04-09T13:01:12.000Z,10.6
2023-04-09T13:04:45.000Z,10
2023-04-09T13:08:18.000Z,10.1
2023-04-09T13:11:51.000Z,9.1
2023-04-09T13:14:42.000Z,9.4
2023-04-09T13:18:14.000Z,9.3
2023-04-09T13:21:47.000Z,9
2023-04-09T13:25:19.000Z,10
2023-04-09T13:28:52.000Z,9.8
2023-04-09T13:32:25.000Z,9.4
2023-04-09T13:35:57.000Z,9.5
2023-04-09T13:39:30.000Z,9.2
2023-04-09T13:43:03.000Z,9.3
2023-04-09T13:46:35.000Z,9.3
2023-04-09T13:50:08.000Z,8.6
2023-04-09T13:52:59.000Z,8.5
2023-04-09T13:56:32.000Z,7.6
2023-04-09T14:00:05.000Z,7.7
2023-04-09T14:03:39.000Z,7.8
2023-04-09T14:07:12.000Z,7.9
2023-04-09T14:10:45.000Z,7.4
2023-04-09T14:14:17.000Z,8
2023-04-09T14:17:50.000Z,7.3
2023-04-09T14:21:23.000Z,7.7
2023-04-09T14:24:55.000Z,7
2023-04-09T14:28:28.000Z,5.9
2023-04-09T14:31:19.000Z,6.5
2023-04-09T14:34:52.000Z,6.3
2023-04-09T14:38:25.000Z,6.5
2023-04-09T14:41:57.000Z,6.4
2023-04-09T14:45:30.000Z,6.6
2023-04-09T14:49:03.000Z,5.9
2023-04-09T14:52:36.000Z,6.2
2023-04-09T14:56:08.000Z,5.7
2023-04-09T14:59:41.000Z,6.2
2023-04-09T15:03:13.000Z,6.1
2023-04-09T15:06:47.000Z,6.3
2023-04-09T15:09:38.000Z,6.3
2023-04-09T15:13:11.000Z,6.1
2023-04-09T15:16:43.000Z,6.6
2023-04-09T15:20:18.000Z,6.2
2023-04-09T15:23:51.000Z,5.7
2023-04-09T15:27:23.000Z,5.7
2023-04-09T15:30:56.000Z,5.8
2023-04-09T15:34:29.000Z,5.9
2023-04-09T15:38:01.000Z,5.5
2023-04-09T15:41:34.000Z,5.5
2023-04-09T15:45:06.000Z,5.2
2023-04-09T15:47:57.000Z,5.2
2023-04-09T15:51:30.000Z,5.7
2023-04-09T15:55:03.000Z,6
2023-04-09T15:58:35.000Z,5.5
2023-04-09T16:02:08.000Z,5.1
2023-04-09T16:05:41.000Z,5
2023-04-09T16:09:13.000Z,5.7
2023-04-09T16:12:46.000Z,5.3
2023-04-09T16:16:19.000Z,5.6
2023-04-09T16:19:51.000Z,5.5
2023-04-09T16:23:24.000Z,5.7
2023-04-09T16:26:15.000Z,5.9
2023-04-09T16:29:48.000Z,5.8
2023-04-09T16:33:21.000Z,5.9
2023-04-09T16:36:53.000Z,5.5
2023-04-09T16:40:26.000Z,5.4
2023-04-09T16:43:59.000Z,5.2
2023-04-09T16:47:31.000Z,4.7
2023-04-09T16:51:04.000Z,4.8
2023-04-09T16:54:37.000Z,4.7
2023-04-09T16:58:10.000Z,5.1
2023-04-09T17:01:42.000Z,6.3
2023-04-09T17:04:33.000Z,5
2023-04-09T17:08:06.000Z,5.2
2023-04-09T17:11:39.000Z,5.3
2023-04-09T17:15:11.000Z,6.2
2023-04-09T17:18:44.000Z,5.9
2023-04-09T17:22:17.000Z,5.2
2023-04-09T17:25:50.000Z,25.1
2023-04-09T17:29:22.000Z,17.5
2023-04-09T17:32:55.000Z,13.2
2023-04-09T17:36:28.000Z,15.8
2023-04-09T17:40:00.000Z,18.9
2023-04-09T17:42:52.000Z,11.1
2023-04-09T17:46:24.000Z,12.3
2023-04-09T17:49:57.000Z,6.9
2023-04-09T17:53:30.000Z,7.1
2023-04-09T17:57:02.000Z,6.2
2023-04-09T18:00:35.000Z,6.4
2023-04-09T18:04:08.000Z,6.3
2023-04-09T18:07:42.000Z,6.1
2023-04-09T18:11:14.000Z,6.1
2023-04-09T18:14:47.000Z,5.9
2023-04-09T18:18:20.000Z,6.5
2023-04-09T18:21:11.000Z,7.4
2023-04-09T18:24:43.000Z,6.5
2023-04-09T18:28:16.000Z,7.6
2023-04-09T18:31:49.000Z,5.6
2023-04-09T18:35:21.000Z,6.3
2023-04-09T18:38:54.000Z,6
2023-04-09T18:42:27.000Z,9.5
2023-04-09T18:45:59.000Z,16.4
2023-04-09T18:49:32.000Z,7
2023-04-09T18:53:05.000Z,6.2
2023-04-09T18:56:37.000Z,6.1
2023-04-09T18:59:30.000Z,7.7
2023-04-09T19:03:03.000Z,7.8
2023-04-09T19:06:36.000Z,6.3
2023-04-09T19:10:09.000Z,5.9
2023-04-09T19:13:41.000Z,7.5
2023-04-09T19:17:14.000Z,9
2023-04-09T19:20:47.000Z,9.1
2023-04-09T19:24:19.000Z,8.4
2023-04-09T19:27:52.000Z,9.2
2023-04-09T19:31:25.000Z,10
2023-04-09T19:34:57.000Z,9
2023-04-09T19:37:49.000Z,8.4
2023-04-09T19:41:21.000Z,8.2
2023-04-09T19:44:54.000Z,9.8
2023-04-09T19:48:27.000Z,8.6
2023-04-09T19:51:59.000Z,12.8
2023-04-09T19:55:32.000Z,10.6
2023-04-09T19:59:04.000Z,9.6
2023-04-09T20:02:37.000Z,10.3
2023-04-09T20:06:10.000Z,9.4
2023-04-09T20:09:43.000Z,8
2023-04-09T20:13:16.000Z,8.3
2023-04-09T20:16:07.000Z,8.4
2023-04-09T20:19:40.000Z,9.7
2023-04-09T20:23:13.000Z,9
2023-04-09T20:26:45.000Z,9.1
2023-04-09T20:30:18.000Z,12.4
2023-04-09T20:33:51.000Z,9.6
2023-04-09T20:37:23.000Z,8.6
2023-04-09T20:40:56.000Z,9.1
2023-04-09T20:44:28.000Z,8.6
2023-04-09T20:48:01.000Z,8.5
2023-04-09T20:51:34.000Z,7.9
2023-04-09T20:54:25.000Z,8.1
2023-04-09T20:57:58.000Z,8.2
2023-04-09T21:01:30.000Z,8.2
2023-04-09T21:08:40.000Z,8.5
2023-04-09T21:12:13.000Z,7.6
2023-04-09T21:15:53.000Z,8.3
2023-04-09T21:19:26.000Z,10.4
2023-04-09T21:22:59.000Z,10.3
2023-04-09T21:30:10.000Z,10
2023-04-09T21:33:01.000Z,12.1
2023-04-09T21:36:34.000Z,12.5
2023-04-09T21:40:06.000Z,13.8
2023-04-09T21:43:41.000Z,11.5
2023-04-09T21:47:13.000Z,11.8
2023-04-09T21:50:46.000Z,12.3
2023-04-09T21:54:19.000Z,12
2023-04-09T21:57:51.000Z,11.4
2023-04-09T22:01:24.000Z,10.7
2023-04-09T22:04:57.000Z,11.8
2023-04-09T22:08:30.000Z,13.2
2023-04-09T22:11:38.000Z,11.8
2023-04-09T22:15:11.000Z,15.1
2023-04-09T22:18:44.000Z,13.3
2023-04-09T22:22:17.000Z,11.5
2023-04-09T22:25:49.000Z,17.1
2023-04-09T22:29:22.000Z,17
2023-04-09T22:32:55.000Z,15.8
2023-04-09T22:36:28.000Z,19.2
2023-04-09T22:40:00.000Z,15.9
2023-04-09T22:43:33.000Z,14.2
2023-04-09T22:47:06.000Z,13.6
2023-04-09T22:49:57.000Z,12.3
2023-04-09T22:53:29.000Z,14.2
2023-04-09T22:57:02.000Z,16.9
2023-04-09T23:00:34.000Z,16.3
2023-04-09T23:04:07.000Z,19.1
2023-04-09T23:07:40.000Z,20.6
2023-04-09T23:11:12.000Z,18.2
2023-04-09T23:14:45.000Z,18
2023-04-09T23:18:18.000Z,22
2023-04-09T23:21:50.000Z,17.3
2023-04-09T23:25:23.000Z,13.5
2023-04-09T23:28:14.000Z,14.5
2023-04-09T23:31:47.000Z,14.3
2023-04-09T23:35:20.000Z,15.7
2023-04-09T23:38:52.000Z,14.2
2023-04-09T23:42:25.000Z,13.4
2023-04-09T23:45:57.000Z,12.1
2023-04-09T23:49:30.000Z,11.5
2023-04-09T23:53:03.000Z,11.3
2023-04-09T23:56:35.000Z,12.1
